Terminal Aerodrome Forecast
Issued by NWS

Home | Current Version | Previous Version | Text Only | Print | Product List | Glossary On
Versions: 1 2 3 4 5 6 7 8 9 10 11 12 13 14 15 16 17 18 19 20 21 22 23 24 25 26
000
FTUS45 KREV 210500
TAFCXP
TAF
KCXP 210520Z 2106/2206 25011KT P6SM VCSH SCT040 BKN060
     FM210800 32007KT P6SM SCT060
     FM211400 VRB03KT P6SM FEW100 SCT180
     FM212000 06008KT P6SM FEW100 BKN150=

USA.gov is the U.S. government's official web portal to all federal, state and local government web resources and services.